createdAt,value
2019-05-02T00:01:42.539Z,99.90
2019-05-02T00:04:19.587Z,99.90
2019-05-02T00:06:45.197Z,99.90
2019-05-02T00:09:14.714Z,99.90
2019-05-02T00:11:44.177Z,99.90
2019-05-02T00:14:13.920Z,99.90
2019-05-02T00:16:45.115Z,99.90
2019-05-02T00:19:15.416Z,99.90
2019-05-02T00:21:44.940Z,99.90
2019-05-02T00:24:14.196Z,99.90
2019-05-02T00:26:43.634Z,99.90
2019-05-02T00:29:13.106Z,99.90
2019-05-02T00:31:46.959Z,99.90
2019-05-02T00:34:13.573Z,99.90
2019-05-02T00:36:42.953Z,99.90
2019-05-02T00:39:13.718Z,99.90
2019-05-02T00:41:43.484Z,99.90
2019-05-02T00:44:12.796Z,99.90
2019-05-02T00:46:42.098Z,99.90
2019-05-02T00:49:11.476Z,99.90
2019-05-02T00:51:40.699Z,99.90
2019-05-02T00:54:10.044Z,99.90
2019-05-02T00:56:40.237Z,99.90
2019-05-02T00:59:10.646Z,99.90
2019-05-02T01:02:00.152Z,99.90
2019-05-02T01:04:30.032Z,99.90
2019-05-02T01:06:59.310Z,99.90
2019-05-02T01:09:29.050Z,99.90
2019-05-02T01:11:58.407Z,99.90
2019-05-02T01:14:31.873Z,99.90
2019-05-02T01:16:58.878Z,99.90
2019-05-02T01:19:28.341Z,99.90
2019-05-02T01:21:57.759Z,99.90
2019-05-02T01:24:27.115Z,99.90
2019-05-02T01:27:08.530Z,99.90
2019-05-02T01:29:41.939Z,99.90
2019-05-02T01:32:36.882Z,99.90
2019-05-02T01:35:14.412Z,99.90
2019-05-02T01:38:14.911Z,99.90
2019-05-02T01:40:48.161Z,99.90
2019-05-02T01:43:25.606Z,99.90
2019-05-02T01:45:55.405Z,99.90
2019-05-02T01:48:24.933Z,99.90
2019-05-02T01:50:54.273Z,99.90
2019-05-02T01:53:23.565Z,99.90
2019-05-02T01:55:57.370Z,99.90
2019-05-02T01:58:24.224Z,99.90
2019-05-02T02:00:53.594Z,99.90
2019-05-02T02:03:22.987Z,99.90
2019-05-02T02:05:52.301Z,99.90
2019-05-02T02:08:21.621Z,99.90
2019-05-02T02:10:56.051Z,99.90
2019-05-02T02:13:22.010Z,99.90
2019-05-02T02:15:51.395Z,99.90
2019-05-02T02:18:26.989Z,99.90
2019-05-02T02:21:19.973Z,99.90
2019-05-02T02:23:57.258Z,99.90
2019-05-02T02:26:26.568Z,99.90
2019-05-02T02:28:55.955Z,99.90
2019-05-02T02:31:25.285Z,99.90
2019-05-02T02:33:54.807Z,99.90
2019-05-02T02:36:31.531Z,99.90
2019-05-02T02:38:55.434Z,99.90
2019-05-02T02:41:24.742Z,99.90
2019-05-02T02:44:12.767Z,99.90
2019-05-02T02:46:44.122Z,99.90
2019-05-02T02:49:21.483Z,99.90
2019-05-02T02:51:44.548Z,99.90
2019-05-02T02:54:13.793Z,99.90
2019-05-02T02:56:43.092Z,99.90
2019-05-02T02:59:12.553Z,99.90
2019-05-02T03:01:41.815Z,99.90
2019-05-02T03:04:12.166Z,99.90
2019-05-02T03:06:44.962Z,99.90
2019-05-02T03:09:13.071Z,99.90
2019-05-02T03:12:02.095Z,99.90
2019-05-02T03:14:32.429Z,99.90
2019-05-02T03:17:01.743Z,99.90
2019-05-02T03:19:31.111Z,99.90
2019-05-02T03:22:01.949Z,99.90
2019-05-02T03:24:36.803Z,99.90
2019-05-02T03:27:02.759Z,99.90
2019-05-02T03:29:40.867Z,99.90
2019-05-02T03:32:14.568Z,99.90
2019-05-02T03:34:47.822Z,99.90
2019-05-02T03:37:10.550Z,99.90
2019-05-02T03:39:36.363Z,99.90
2019-05-02T03:42:05.681Z,99.90
2019-05-02T03:44:35.029Z,99.90
2019-05-02T03:47:05.189Z,99.90
2019-05-02T03:49:41.082Z,99.90
2019-05-02T03:52:06.113Z,99.90
2019-05-02T03:54:35.542Z,99.90
2019-05-02T03:57:05.042Z,99.90
2019-05-02T03:59:38.581Z,99.90
2019-05-02T04:02:05.538Z,99.90
2019-05-02T04:04:35.447Z,99.90
2019-05-02T04:07:05.120Z,99.90
2019-05-02T04:09:42.238Z,99.90
2019-05-02T04:12:11.840Z,99.90
2019-05-02T04:14:39.624Z,99.90
2019-05-02T04:17:10.575Z,99.90
2019-05-02T04:19:40.704Z,99.90
2019-05-02T04:22:12.010Z,99.90
2019-05-02T04:24:47.957Z,99.90
2019-05-02T04:27:13.823Z,99.90
2019-05-02T04:29:43.485Z,99.90
2019-05-02T04:32:14.480Z,99.90
2019-05-02T04:34:49.161Z,99.90
2019-05-02T04:37:15.213Z,99.90
2019-05-02T04:39:48.879Z,99.90
2019-05-02T04:42:22.019Z,99.90
2019-05-02T04:45:12.056Z,99.90
2019-05-02T04:47:21.784Z,99.90
2019-05-02T04:49:52.064Z,99.90
2019-05-02T04:52:21.523Z,99.90
2019-05-02T04:54:51.032Z,99.90
2019-05-02T04:57:20.261Z,99.90
2019-05-02T04:59:50.591Z,99.90
2019-05-02T05:02:29.708Z,99.90
2019-05-02T05:04:51.691Z,99.90
2019-05-02T05:07:21.041Z,99.90
2019-05-02T05:10:00.878Z,99.90
2019-05-02T05:12:21.422Z,99.90
2019-05-02T05:14:50.768Z,99.90
2019-05-02T05:17:20.276Z,99.90
2019-05-02T05:19:49.582Z,99.90
2019-05-02T05:22:18.938Z,99.90
2019-05-02T05:25:03.835Z,99.90
2019-05-02T05:27:33.185Z,99.90
2019-05-02T05:30:09.579Z,99.90
2019-05-02T05:32:34.605Z,99.90
2019-05-02T05:35:09.170Z,99.90
2019-05-02T05:37:38.078Z,99.90
2019-05-02T05:40:08.356Z,99.90
2019-05-02T05:42:38.004Z,99.90
2019-05-02T05:45:12.126Z,99.90
2019-05-02T05:47:39.650Z,99.90
2019-05-02T05:50:09.313Z,99.90
2019-05-02T05:52:42.279Z,99.90
2019-05-02T05:55:12.849Z,99.90
2019-05-02T05:57:40.794Z,99.90
2019-05-02T06:00:15.933Z,99.90
2019-05-02T06:02:52.689Z,99.90
2019-05-02T06:05:12.643Z,99.90
2019-05-02T06:07:44.940Z,99.90
2019-05-02T06:10:13.106Z,99.90
2019-05-02T06:12:42.323Z,99.90
2019-05-02T06:15:11.936Z,99.90
2019-05-02T06:17:41.334Z,99.90
2019-05-02T06:20:10.859Z,99.90
2019-05-02T06:22:40.286Z,99.90
2019-05-02T06:25:10.317Z,99.90
2019-05-02T06:27:39.798Z,99.90
2019-05-02T06:30:09.670Z,99.90
2019-05-02T06:32:39.251Z,99.90
2019-05-02T06:35:09.872Z,99.90
2019-05-02T06:37:40.806Z,99.90
2019-05-02T06:40:10.513Z,99.90
2019-05-02T06:42:39.939Z,99.90
2019-05-02T06:45:10.176Z,99.90
2019-05-02T06:47:41.397Z,99.90
2019-05-02T06:50:11.202Z,99.90
2019-05-02T06:52:40.643Z,99.90
2019-05-02T06:55:10.612Z,99.90
2019-05-02T06:57:39.941Z,99.90
2019-05-02T07:00:09.843Z,99.90
2019-05-02T07:02:39.265Z,99.90
2019-05-02T07:05:08.831Z,99.90
2019-05-02T07:07:38.534Z,99.90
2019-05-02T07:10:08.488Z,99.90
2019-05-02T07:12:38.069Z,99.90
2019-05-02T07:15:10.874Z,99.90
2019-05-02T07:17:45.019Z,99.90
2019-05-02T07:20:14.641Z,99.90
2019-05-02T07:22:45.617Z,99.90
2019-05-02T07:25:17.415Z,99.90
2019-05-02T07:27:46.738Z,99.90
2019-05-02T07:30:16.250Z,99.90
2019-05-02T07:32:45.580Z,99.90
2019-05-02T07:35:19.275Z,99.90
2019-05-02T07:37:48.776Z,99.90
2019-05-02T07:40:18.827Z,99.90
2019-05-02T07:42:48.254Z,99.90
2019-05-02T07:45:17.717Z,99.90
2019-05-02T07:47:47.058Z,99.90
2019-05-02T07:50:16.406Z,99.90
2019-05-02T07:52:45.770Z,99.90
2019-05-02T07:55:15.194Z,99.90
2019-05-02T07:57:45.640Z,99.90
2019-05-02T08:00:16.156Z,99.90
2019-05-02T08:02:45.560Z,99.90
2019-05-02T08:05:15.764Z,99.90
2019-05-02T08:07:46.061Z,99.90
2019-05-02T08:10:21.721Z,99.90
2019-05-02T08:12:47.647Z,99.90
2019-05-02T08:15:17.209Z,99.90
2019-05-02T08:17:53.248Z,99.90
2019-05-02T08:20:19.016Z,99.90
2019-05-02T08:22:50.306Z,99.90
2019-05-02T08:25:19.957Z,99.90
2019-05-02T08:28:00.429Z,99.90
2019-05-02T08:30:40.415Z,99.90
2019-05-02T08:33:07.640Z,99.90
2019-05-02T08:35:37.058Z,99.90
2019-05-02T08:38:06.285Z,99.90
2019-05-02T08:40:35.580Z,99.90
2019-05-02T08:43:08.960Z,99.90
2019-05-02T08:45:38.205Z,99.90
2019-05-02T08:48:06.998Z,99.90
2019-05-02T08:50:36.463Z,99.90
2019-05-02T08:53:05.775Z,99.90
2019-05-02T08:55:35.050Z,99.90
2019-05-02T08:58:06.539Z,99.90
2019-05-02T09:00:37.535Z,99.90
2019-05-02T09:03:06.595Z,99.90
2019-05-02T09:05:36.351Z,99.90
2019-05-02T09:08:09.119Z,99.90
2019-05-02T09:10:42.067Z,99.90
2019-05-02T09:13:09.051Z,98.60
2019-05-02T09:15:40.200Z,99.90
2019-05-02T09:18:09.501Z,99.60
2019-05-02T09:20:38.983Z,99.90
2019-05-02T09:23:08.428Z,99.90
2019-05-02T09:25:37.808Z,99.90
2019-05-02T09:28:07.181Z,99.70
2019-05-02T09:30:36.432Z,99.90
2019-05-02T09:33:06.782Z,99.90
2019-05-02T09:35:36.396Z,99.90
2019-05-02T09:38:05.814Z,99.90
2019-05-02T09:40:35.121Z,99.90
2019-05-02T09:43:04.880Z,99.90
2019-05-02T09:45:37.420Z,99.90
2019-05-02T09:48:08.189Z,99.90
2019-05-02T09:50:38.467Z,99.90
2019-05-02T09:53:13.012Z,99.90
2019-05-02T09:55:42.388Z,99.90
2019-05-02T09:58:10.370Z,99.90
2019-05-02T10:01:02.025Z,99.90
2019-05-02T10:03:31.927Z,99.90
2019-05-02T10:06:03.153Z,99.90
2019-05-02T10:08:32.757Z,99.90
2019-05-02T10:11:02.782Z,99.90
2019-05-02T10:13:33.327Z,99.90
2019-05-02T10:16:02.779Z,99.90
2019-05-02T10:18:32.916Z,99.90
2019-05-02T10:21:03.157Z,99.90
2019-05-02T10:23:32.771Z,99.90
2019-05-02T10:26:02.868Z,99.90
2019-05-02T10:28:32.395Z,99.90
2019-05-02T10:31:02.390Z,99.90
2019-05-02T10:33:33.664Z,99.90
2019-05-02T10:36:02.833Z,99.90
2019-05-02T10:38:32.670Z,99.90
2019-05-02T10:41:04.740Z,99.90
2019-05-02T10:43:33.422Z,99.90
2019-05-02T10:46:27.899Z,99.90
2019-05-02T10:49:02.246Z,99.90
2019-05-02T10:51:41.721Z,99.90
2019-05-02T10:54:08.696Z,99.90
2019-05-02T10:56:38.065Z,99.90
2019-05-02T10:59:07.484Z,99.90
2019-05-02T11:01:54.311Z,99.90
2019-05-02T11:04:28.963Z,99.90
2019-05-02T11:06:56.681Z,99.90
2019-05-02T11:09:26.425Z,99.90
2019-05-02T11:11:55.979Z,99.90
2019-05-02T11:14:32.101Z,99.90
2019-05-02T11:17:13.817Z,99.90
2019-05-02T11:19:44.351Z,99.90
2019-05-02T11:22:13.992Z,99.90
2019-05-02T11:24:43.393Z,99.90
2019-05-02T11:27:13.189Z,99.90
2019-05-02T11:29:42.830Z,99.90
2019-05-02T11:32:12.828Z,99.60
2019-05-02T11:34:42.743Z,97.00
2019-05-02T11:37:12.286Z,95.60
2019-05-02T11:39:46.237Z,95.20
2019-05-02T11:42:13.110Z,95.30
2019-05-02T11:44:42.863Z,96.30
2019-05-02T11:47:12.699Z,96.80
2019-05-02T11:49:46.860Z,94.40
2019-05-02T11:52:16.376Z,94.70
2019-05-02T11:54:48.525Z,93.60
2019-05-02T11:57:22.781Z,94.20
2019-05-02T11:59:48.039Z,92.90
2019-05-02T12:02:49.069Z,93.00
2019-05-02T12:05:22.199Z,92.60
2019-05-02T12:07:55.012Z,87.80
2019-05-02T12:10:27.920Z,89.10
2019-05-02T12:12:55.473Z,84.80
2019-05-02T12:15:25.056Z,89.80
2019-05-02T12:17:54.511Z,85.10
2019-05-02T12:20:28.656Z,83.00
2019-05-02T12:22:55.689Z,83.50
2019-05-02T12:25:24.974Z,80.30
2019-05-02T12:27:54.326Z,85.60
2019-05-02T12:30:23.699Z,86.30
2019-05-02T12:32:53.173Z,82.50
2019-05-02T12:35:22.931Z,86.00
2019-05-02T12:37:55.212Z,85.20
2019-05-02T12:40:23.308Z,83.90
2019-05-02T12:42:52.651Z,81.30
2019-05-02T12:45:22.070Z,72.00
2019-05-02T12:47:52.301Z,73.20
2019-05-02T12:50:22.617Z,74.20
2019-05-02T12:52:55.470Z,77.20
2019-05-02T12:55:23.487Z,77.40
2019-05-02T12:57:53.075Z,78.50
2019-05-02T13:00:22.636Z,78.60
2019-05-02T13:02:58.742Z,75.30
2019-05-02T13:05:28.143Z,76.00
2019-05-02T13:07:57.475Z,78.80
2019-05-02T13:10:45.651Z,75.30
2019-05-02T13:13:16.271Z,72.60
2019-05-02T13:15:46.043Z,72.90
2019-05-02T13:18:18.675Z,74.20
2019-05-02T13:20:47.104Z,71.50
2019-05-02T13:23:38.896Z,73.80
2019-05-02T13:26:18.461Z,74.90
2019-05-02T13:28:42.378Z,76.80
2019-05-02T13:31:18.630Z,76.80
2019-05-02T13:33:58.352Z,79.80
2019-05-02T13:36:42.780Z,78.80
2019-05-02T13:39:22.014Z,77.90
2019-05-02T13:41:52.178Z,76.70
2019-05-02T13:44:25.195Z,75.90
2019-05-02T13:46:54.699Z,78.00
2019-05-02T13:49:24.105Z,77.50
2019-05-02T13:51:53.534Z,80.20
2019-05-02T13:54:22.890Z,76.00
2019-05-02T13:56:53.023Z,76.80
2019-05-02T13:59:22.604Z,77.00
2019-05-02T14:01:53.854Z,81.00
2019-05-02T14:04:23.634Z,78.70
2019-05-02T14:06:53.139Z,78.20
2019-05-02T14:09:32.326Z,76.10
2019-05-02T14:12:32.956Z,80.80
2019-05-02T14:15:03.033Z,78.10
2019-05-02T14:17:32.723Z,75.20
2019-05-02T14:20:10.692Z,76.70
2019-05-02T14:22:33.366Z,78.50
2019-05-02T14:25:22.386Z,75.40
2019-05-02T14:27:55.592Z,72.70
2019-05-02T14:30:36.069Z,73.10
2019-05-02T14:32:58.748Z,74.70
2019-05-02T14:35:32.445Z,72.30
2019-05-02T14:38:08.676Z,71.70
2019-05-02T14:40:44.330Z,74.10
2019-05-02T14:43:16.525Z,73.00
2019-05-02T14:45:50.318Z,75.50
2019-05-02T14:48:22.258Z,76.00
2019-05-02T14:50:52.109Z,75.50
2019-05-02T14:53:25.200Z,74.80
2019-05-02T14:55:57.626Z,74.00
2019-05-02T14:58:25.591Z,75.20
2019-05-02T15:00:56.866Z,75.90
2019-05-02T15:03:28.462Z,75.90
2019-05-02T15:05:58.981Z,72.80
2019-05-02T15:08:29.351Z,73.70
2019-05-02T15:10:59.000Z,73.70
2019-05-02T15:13:32.327Z,72.20
2019-05-02T15:15:59.876Z,74.60
2019-05-02T15:18:32.143Z,73.80
2019-05-02T15:21:03.861Z,73.20
2019-05-02T15:23:32.566Z,74.90
2019-05-02T15:26:02.603Z,78.30
2019-05-02T15:28:37.449Z,75.70
2019-05-02T15:31:06.383Z,75.80
2019-05-02T15:33:42.123Z,76.10
2019-05-02T15:36:12.235Z,74.00
2019-05-02T15:38:47.154Z,75.80
2019-05-02T15:41:15.354Z,77.40
2019-05-02T15:43:49.038Z,76.50
2019-05-02T15:46:22.566Z,78.40
2019-05-02T15:48:47.277Z,77.50
2019-05-02T15:51:16.948Z,80.20
2019-05-02T15:54:05.978Z,77.70
2019-05-02T15:56:28.991Z,78.50
2019-05-02T15:59:03.388Z,81.00
2019-05-02T16:01:49.104Z,80.40
2019-05-02T16:04:24.074Z,79.80
2019-05-02T16:06:52.960Z,79.80
2019-05-02T16:09:22.887Z,78.40
2019-05-02T16:11:56.778Z,80.60
2019-05-02T16:14:27.171Z,80.20
2019-05-02T16:16:57.525Z,80.10
2019-05-02T16:19:29.295Z,82.00
2019-05-02T16:22:11.494Z,81.60
2019-05-02T16:24:44.006Z,80.50
2019-05-02T16:27:16.553Z,81.30
2019-05-02T16:29:43.603Z,82.10
2019-05-02T16:32:31.047Z,82.70
2019-05-02T16:35:07.223Z,84.20
2019-05-02T16:37:33.028Z,85.00
2019-05-02T16:40:02.920Z,84.90
2019-05-02T16:42:32.882Z,84.40
2019-05-02T16:45:02.828Z,84.40
2019-05-02T16:47:32.750Z,84.50
2019-05-02T16:50:02.652Z,86.10
2019-05-02T16:52:32.704Z,89.70
2019-05-02T16:55:02.865Z,86.50
2019-05-02T16:57:35.087Z,85.40
2019-05-02T17:00:06.191Z,86.10
2019-05-02T17:02:37.955Z,86.90
2019-05-02T17:05:09.366Z,85.70
2019-05-02T17:07:55.877Z,86.40
2019-05-02T17:10:52.655Z,86.70
2019-05-02T17:13:18.799Z,87.70
2019-05-02T17:15:48.368Z,87.20
2019-05-02T17:18:18.417Z,88.40
2019-05-02T17:20:54.932Z,87.80
2019-05-02T17:23:18.982Z,88.30
2019-05-02T17:25:48.392Z,88.10
2019-05-02T17:28:17.880Z,88.40
2019-05-02T17:30:47.408Z,89.20
2019-05-02T17:33:16.955Z,89.40
2019-05-02T17:35:51.246Z,89.10
2019-05-02T17:38:19.216Z,90.00
2019-05-02T17:40:51.577Z,90.30
2019-05-02T17:43:20.092Z,90.40
2019-05-02T17:45:49.606Z,90.30
2019-05-02T17:48:19.002Z,90.90
2019-05-02T17:51:06.352Z,90.60
2019-05-02T17:53:41.059Z,90.90
2019-05-02T17:56:06.998Z,91.10
2019-05-02T17:58:36.435Z,90.70
2019-05-02T18:01:09.726Z,90.70
2019-05-02T18:03:39.450Z,91.40
2019-05-02T18:06:13.295Z,91.30
2019-05-02T18:08:41.637Z,92.20
2019-05-02T18:11:12.615Z,92.30
2019-05-02T18:13:42.414Z,92.80
2019-05-02T18:16:15.093Z,93.10
2019-05-02T18:18:46.670Z,93.40
2019-05-02T18:21:17.693Z,94.30
2019-05-02T18:23:45.323Z,95.10
2019-05-02T18:26:14.661Z,95.30
2019-05-02T18:28:49.042Z,95.50
2019-05-02T18:31:15.374Z,97.50
2019-05-02T18:33:45.015Z,96.80
2019-05-02T18:36:17.361Z,96.30
2019-05-02T18:38:45.797Z,96.80
2019-05-02T18:41:15.502Z,99.70
2019-05-02T18:43:45.385Z,99.90
2019-05-02T18:46:15.046Z,99.90
2019-05-02T18:48:46.863Z,99.90
2019-05-02T18:51:18.907Z,99.90
2019-05-02T18:53:47.392Z,99.90
2019-05-02T18:56:16.802Z,99.90
2019-05-02T18:58:46.294Z,99.90
2019-05-02T19:01:17.815Z,99.90
2019-05-02T19:03:51.784Z,99.90
2019-05-02T19:06:18.428Z,99.90
2019-05-02T19:08:50.287Z,99.90
2019-05-02T19:11:22.008Z,99.90
2019-05-02T19:13:52.662Z,99.90
2019-05-02T19:16:27.229Z,99.90
2019-05-02T19:18:57.137Z,99.90
2019-05-02T19:21:26.343Z,99.90
2019-05-02T19:23:56.050Z,99.90
2019-05-02T19:26:25.475Z,99.90
2019-05-02T19:29:16.979Z,99.90
2019-05-02T19:31:46.569Z,99.90
2019-05-02T19:34:16.820Z,99.90
2019-05-02T19:36:47.001Z,99.90
2019-05-02T19:39:16.764Z,99.90
2019-05-02T19:41:46.199Z,99.90
2019-05-02T19:44:15.563Z,99.90
2019-05-02T19:46:44.996Z,99.90
2019-05-02T19:49:16.345Z,99.90
2019-05-02T19:51:50.317Z,99.90
2019-05-02T19:54:17.044Z,99.90
2019-05-02T19:56:47.613Z,99.90
2019-05-02T19:59:24.740Z,99.90
2019-05-02T20:01:48.295Z,99.90
2019-05-02T20:04:17.727Z,99.90
2019-05-02T20:06:47.226Z,99.90
2019-05-02T20:09:16.804Z,99.90
2019-05-02T20:11:46.167Z,99.90
2019-05-02T20:14:15.648Z,99.90
2019-05-02T20:16:52.758Z,99.90
2019-05-02T20:19:25.706Z,99.90
2019-05-02T20:22:15.114Z,99.90
2019-05-02T20:25:00.138Z,99.90
2019-05-02T20:27:28.526Z,99.90
2019-05-02T20:29:58.368Z,99.90
2019-05-02T20:32:27.803Z,99.90
2019-05-02T20:34:57.281Z,99.90
2019-05-02T20:37:26.809Z,99.90
2019-05-02T20:39:56.392Z,99.90
2019-05-02T20:42:25.875Z,99.90
2019-05-02T20:44:55.204Z,99.90
2019-05-02T20:47:28.043Z,99.90
2019-05-02T20:49:57.356Z,99.90
2019-05-02T20:52:26.669Z,99.90
2019-05-02T20:54:56.088Z,99.90
2019-05-02T20:57:25.476Z,99.90
2019-05-02T20:59:55.010Z,99.90
2019-05-02T21:02:24.393Z,99.90
2019-05-02T21:04:54.024Z,99.90
2019-05-02T21:07:48.475Z,99.90
2019-05-02T21:10:22.016Z,99.90
2019-05-02T21:12:52.621Z,99.90
2019-05-02T21:15:22.472Z,99.90
2019-05-02T21:17:54.684Z,99.90
2019-05-02T21:20:24.032Z,99.90
2019-05-02T21:22:53.383Z,99.90
2019-05-02T21:25:23.378Z,99.90
2019-05-02T21:27:53.040Z,99.90
2019-05-02T21:30:26.201Z,99.90
2019-05-02T21:32:55.768Z,99.90
2019-05-02T21:35:25.221Z,99.90
2019-05-02T21:37:54.820Z,99.90
2019-05-02T21:40:25.802Z,99.90
2019-05-02T21:42:55.240Z,99.90
2019-05-02T21:45:24.806Z,99.90
2019-05-02T21:47:54.209Z,99.90
2019-05-02T21:50:43.751Z,99.90
2019-05-02T21:53:24.593Z,99.90
2019-05-02T21:56:02.803Z,99.90
2019-05-02T21:58:32.453Z,99.90
2019-05-02T22:01:12.932Z,99.90
2019-05-02T22:03:42.470Z,99.90
2019-05-02T22:06:12.204Z,99.90
2019-05-02T22:08:41.892Z,99.90
2019-05-02T22:11:12.270Z,99.90
2019-05-02T22:13:42.338Z,99.90
2019-05-02T22:16:12.932Z,99.90
2019-05-02T22:18:42.731Z,99.90
2019-05-02T22:21:12.494Z,99.90
2019-05-02T22:23:42.538Z,99.90
2019-05-02T22:26:12.727Z,99.90
2019-05-02T22:28:42.278Z,99.90
2019-05-02T22:31:12.339Z,99.90
2019-05-02T22:33:44.562Z,99.90
2019-05-02T22:36:13.194Z,99.90
2019-05-02T22:38:48.586Z,99.90
2019-05-02T22:41:17.933Z,99.90
2019-05-02T22:43:47.294Z,99.90
2019-05-02T22:46:35.673Z,99.90
2019-05-02T22:49:05.288Z,99.90
2019-05-02T22:51:36.548Z,99.90
2019-05-02T22:54:06.318Z,99.90
2019-05-02T22:56:35.851Z,99.90
2019-05-02T22:59:06.216Z,99.90
2019-05-02T23:01:35.545Z,99.90
2019-05-02T23:04:05.413Z,99.90
2019-05-02T23:06:35.013Z,99.90
2019-05-02T23:09:06.102Z,99.90
2019-05-02T23:11:35.567Z,99.90
2019-05-02T23:14:08.886Z,99.90
2019-05-02T23:16:38.185Z,99.90
2019-05-02T23:19:07.659Z,99.90
2019-05-02T23:21:37.082Z,99.90
2019-05-02T23:24:11.789Z,99.90
2019-05-02T23:26:57.571Z,99.90
2019-05-02T23:29:26.919Z,99.90
2019-05-02T23:31:56.256Z,99.90
2019-05-02T23:34:25.851Z,99.90
2019-05-02T23:36:55.100Z,99.90
2019-05-02T23:39:24.321Z,99.90
2019-05-02T23:41:53.670Z,99.90
2019-05-02T23:44:22.979Z,99.90
2019-05-02T23:46:52.463Z,99.90
2019-05-02T23:49:22.130Z,99.90
2019-05-02T23:51:52.015Z,99.90
2019-05-02T23:54:22.033Z,99.90
2019-05-02T23:56:51.484Z,99.90
2019-05-02T23:59:22.357Z,99.90
